Hamnavoe — VSTY7 — position and weather

sailwx.info

Track history (hours):
 
Tides and Currents Weather Stations Pressure Air Temp Water Temp Dewpoint Dewpoint Depression Visibility Wind Speed Wind Dir Waves Ship Positions

Hamnavoe

Operator: NorthLink Orkey & Shetland Ferries Ltd

Last reported at 2017-Oct-18 12:30 UTC. Time now 2017-Oct-18 12:59 UTC.
Position N 58°58' W 003°18'.

Length 112 m; draft 4.2 m.

Type: Ship. MMSI: 235449000.

Date/timePositionNaut miles runAvg speedWind from/ knotsBaromVisibWave heightAir tempDewpointWater temp
2017-Oct-18 12:30N 58°58' W 003°18'0 0.0
2017-Oct-18 12:00N 58°58' W 003°18'0 0.0
2017-Oct-18 11:30N 58°58' W 003°18'0 0.0
2017-Oct-18 11:00N 58°58' W 003°18'0 0.0
2017-Oct-18 10:30N 58°58' W 003°18'0 0.0
2017-Oct-18 10:00N 58°58' W 003°18'0 0.0
2017-Oct-18 09:30N 58°58' W 003°18'1 1.4
2017-Oct-18 09:00N 58°57' W 003°17'714.6
2017-Oct-18 08:30N 58°52' W 003°28'816.9
2017-Oct-18 08:00N 58°44' W 003°29'714.5
2017-Oct-18 07:30N 58°37' W 003°32'0 0.1
2017-Oct-18 07:00N 58°37' W 003°32'714.5
2017-Oct-18 06:30N 58°44' W 003°31'918.3
2017-Oct-18 06:00N 58°53' W 003°27'713.6
2017-Oct-18 05:30N 58°57' W 003°18'1 1.0
2017-Oct-18 04:59N 58°58' W 003°18'0 0.0
2017-Oct-18 04:29N 58°58' W 003°18'0 0.0
2017-Oct-18 03:59N 58°58' W 003°18'0 0.0
2017-Oct-18 03:29N 58°58' W 003°18'0 0.0
2017-Oct-18 02:59N 58°58' W 003°18'0 0.0
2017-Oct-18 02:29N 58°58' W 003°18'0 0.0
2017-Oct-18 01:59N 58°58' W 003°18'0 0.0
2017-Oct-18 01:25N 58°58' W 003°18'0 0.0
2017-Oct-18 00:55N 58°58' W 003°18'0 0.0
2017-Oct-18 00:30N 58°58' W 003°18'0 0.0
2017-Oct-17 23:50N 58°58' W 003°18'0 0.0
2017-Oct-17 23:26N 58°58' W 003°18'0 0.0
2017-Oct-17 22:55N 58°58' W 003°18'0 0.0
2017-Oct-17 22:27N 58°58' W 003°18'0 0.0
2017-Oct-17 22:01N 58°58' W 003°18'0 0.0
2017-Oct-17 21:28N 58°58' W 003°18'0 0.0
2017-Oct-17 20:58N 58°58' W 003°18'0 0.0
2017-Oct-17 20:28N 58°58' W 003°18'0 0.0
2017-Oct-17 19:58N 58°58' W 003°18'0 0.1
2017-Oct-17 19:30N 58°58' W 003°18'714.0
2017-Oct-17 19:00N 58°52' W 003°11'713.8
2017-Oct-17 18:29N 58°45' W 003°14'919.0
2017-Oct-17 18:00N 58°40' W 003°29'4 5.2
2017-Oct-17 17:19N 58°37' W 003°32'2 7.7
2017-Oct-17 17:00N 58°39' W 003°31'917.5
2017-Oct-17 16:30N 58°48' W 003°29'917.7
2017-Oct-17 16:00N 58°56' W 003°25'4 8.0
2017-Oct-17 15:30N 58°58' W 003°18'0 0.0
2017-Oct-17 14:58N 58°58' W 003°18'0 0.0
2017-Oct-17 14:28N 58°58' W 003°18'0 0.0
2017-Oct-17 14:00N 58°58' W 003°18'0 0.0
2017-Oct-17 13:30N 58°58' W 003°18'0 0.0
2017-Oct-17 13:00N 58°58' W 003°18'0 0.0
2017-Oct-17 12:30N 58°58' W 003°18'0 0.0
2017-Oct-17 12:00N 58°58' W 003°18'0 0.0
2017-Oct-17 11:30N 58°58' W 003°18'0 0.0
2017-Oct-17 10:58N 58°58' W 003°18'0 0.0
2017-Oct-17 10:28N 58°58' W 003°18'0 0.0
2017-Oct-17 09:58N 58°58' W 003°18'0 0.0
2017-Oct-17 09:30N 58°58' W 003°18'4 8.2
2017-Oct-17 09:00N 58°56' W 003°25'713.9
2017-Oct-17 08:31N 58°50' W 003°29'714.4
2017-Oct-17 08:00N 58°42' W 003°30'611.8
2017-Oct-17 07:30N 58°37' W 003°32'0 0.1
2017-Oct-17 07:00N 58°37' W 003°32'714.6
2017-Oct-17 06:30N 58°44' W 003°30'918.8
2017-Oct-17 06:01N 58°53' W 003°27'713.4
2017-Oct-17 05:31N 58°57' W 003°18'0 0.8
2017-Oct-17 04:58N 58°58' W 003°18'0 0.0
2017-Oct-17 04:28N 58°58' W 003°18'0 0.0
2017-Oct-17 03:58N 58°58' W 003°18'0 0.0
2017-Oct-17 03:16N 58°58' W 003°18'0 0.0
2017-Oct-17 02:58N 58°58' W 003°18'0 0.0
2017-Oct-17 02:28N 58°58' W 003°18'0 0.0
2017-Oct-17 01:58N 58°58' W 003°18'0 0.0
2017-Oct-17 01:28N 58°58' W 003°18'0 0.0
2017-Oct-17 00:58N 58°58' W 003°18'0 0.0
2017-Oct-17 00:28N 58°58' W 003°18'0 0.0
2017-Oct-16 23:58N 58°58' W 003°18'0 0.0
2017-Oct-16 23:28N 58°58' W 003°18'0 0.0
2017-Oct-16 22:58N 58°58' W 003°18'0 0.0
2017-Oct-16 22:28N 58°58' W 003°18'0 0.0
2017-Oct-16 21:58N 58°58' W 003°18'0 0.0
2017-Oct-16 21:28N 58°58' W 003°18'0 0.0
2017-Oct-16 20:58N 58°58' W 003°18'0 0.0
2017-Oct-16 20:28N 58°58' W 003°18'0 0.0
2017-Oct-16 19:58N 58°58' W 003°18'0 0.0
2017-Oct-16 19:30N 58°58' W 003°18'5 9.9
2017-Oct-16 19:00N 58°55' W 003°26'816.1
2017-Oct-16 18:30N 58°47' W 003°28'917.1
2017-Oct-16 18:00N 58°39' W 003°31'2 4.6
2017-Oct-16 17:30N 58°37' W 003°32'1 1.2
2017-Oct-16 17:00N 58°37' W 003°32'917.8
2017-Oct-16 16:30N 58°46' W 003°30'918.7
2017-Oct-16 16:00N 58°55' W 003°26'510.1
2017-Oct-16 15:30N 58°58' W 003°18'0 0.0
2017-Oct-16 14:56N 58°58' W 003°18'0 0.0
2017-Oct-16 13:59N 58°58' W 003°18'0 0.0
2017-Oct-16 13:29N 58°58' W 003°18'0 0.0
2017-Oct-16 12:59N 58°58' W 003°18'0 0.0
2017-Oct-16 12:29N 58°58' W 003°18'0 0.0
2017-Oct-16 11:59N 58°58' W 003°18'0 0.0
2017-Oct-16 11:29N 58°58' W 003°18'0 0.0
2017-Oct-16 10:59N 58°58' W 003°18'0 0.0
2017-Oct-16 10:26N 58°58' W 003°18'0 0.0
2017-Oct-16 09:56N 58°58' W 003°18'0 0.0
2017-Oct-16 09:26N 58°58' W 003°18'1 2.5
2017-Oct-16 09:00N 58°57' W 003°18'714.3
2017-Oct-16 08:30N 58°52' W 003°28'917.2
2017-Oct-16 08:00N 58°43' W 003°30'7 6.7
2017-Oct-16 07:00N 58°37' W 003°32'612.4
2017-Oct-16 06:30N 58°43' W 003°30'917.8
2017-Oct-16 06:00N 58°52' W 003°28'714.6
2017-Oct-16 05:30N 58°57' W 003°18'1 1.6
2017-Oct-16 04:53N 58°58' W 003°18'0 0.0
2017-Oct-16 04:26N 58°58' W 003°18'0 0.0
2017-Oct-16 03:56N 58°58' W 003°18'0 0.0
2017-Oct-16 03:26N 58°58' W 003°18'0 0.0
2017-Oct-16 02:56N 58°58' W 003°18'0 0.0
2017-Oct-16 02:26N 58°58' W 003°18'0 0.0
2017-Oct-16 01:50N 58°58' W 003°18'0 0.0
2017-Oct-16 01:29N 58°58' W 003°18'0 0.0
2017-Oct-16 00:56N 58°58' W 003°18'0 0.0
2017-Oct-16 00:29N 58°58' W 003°18'0 0.0
2017-Oct-15 23:56N 58°58' W 003°18'0 0.0
2017-Oct-15 23:26N 58°58' W 003°18'0 0.0
2017-Oct-15 23:00N 58°58' W 003°18'0 0.0
2017-Oct-15 22:25N 58°58' W 003°18'0 0.0
2017-Oct-15 22:00N 58°58' W 003°18'0 0.0
2017-Oct-15 21:30N 58°58' W 003°18'0 0.0
2017-Oct-15 20:57N 58°58' W 003°18'0 0.0
2017-Oct-15 20:30N 58°58' W 003°18'0 0.0
2017-Oct-15 19:57N 58°58' W 003°18'2 3.4
2017-Oct-15 19:30N 58°57' W 003°16'816.3
2017-Oct-15 19:00N 58°49' W 003°09'815.7
2017-Oct-15 18:30N 58°43' W 003°19'1017.9
2017-Oct-15 17:58N 58°37' W 003°32'0 0.1
2017-Oct-15 17:18N 58°37' W 003°32'310.8
2017-Oct-15 17:00N 58°40' W 003°32'817.0
2017-Oct-15 16:30N 58°48' W 003°30'816.1
2017-Oct-15 16:00N 58°56' W 003°25'4 1.7
2017-Oct-15 13:30N 58°58' W 003°18'0 0.0
2017-Oct-15 12:45N 58°58' W 003°18'0 0.0
2017-Oct-15 12:23N 58°58' W 003°18'1 3.6
2017-Oct-15 12:01N 58°57' W 003°20'816.5
2017-Oct-15 11:30N 58°50' W 003°28'918.4
2017-Oct-15 11:00N 58°40' W 003°31'4 7.9
2017-Oct-15 10:30N 58°37' W 003°32'0 0.0
2017-Oct-15 09:55N 58°37' W 003°32'0 0.1
2017-Oct-15 09:29N 58°37' W 003°32'714.9
2017-Oct-15 09:00N 58°44' W 003°31'917.4
2017-Oct-15 08:30N 58°52' W 003°29'715.0
2017-Oct-15 08:00N 58°57' W 003°17'1 1.8
2017-Oct-15 07:30N 58°58' W 003°18'0 0.0
2017-Oct-15 07:00N 58°58' W 003°18'0 0.0
2017-Oct-15 06:30N 58°58' W 003°18'0 0.0
2017-Oct-15 06:00N 58°58' W 003°18'0 0.0
2017-Oct-15 05:30N 58°58' W 003°18'0 0.0
2017-Oct-15 05:00N 58°58' W 003°18'0 0.0
2017-Oct-15 04:30N 58°58' W 003°18'0 0.0
2017-Oct-15 04:00N 58°58' W 003°18'0 0.0
2017-Oct-15 03:30N 58°58' W 003°18'0 0.0
2017-Oct-15 03:00N 58°58' W 003°18'0 0.0
2017-Oct-15 02:30N 58°58' W 003°18'0 0.0
2017-Oct-15 02:00N 58°58' W 003°18'0 0.0
2017-Oct-15 01:30N 58°58' W 003°18'0 0.0
2017-Oct-15 01:00N 58°58' W 003°18'0 0.0
2017-Oct-15 00:30N 58°58' W 003°18'0 0.0
2017-Oct-15 00:00N 58°58' W 003°18'0 0.0
2017-Oct-14 23:30N 58°58' W 003°18'0 0.0
2017-Oct-14 23:00N 58°58' W 003°18'0 0.0
2017-Oct-14 22:30N 58°58' W 003°18'0 0.0
2017-Oct-14 22:00N 58°58' W 003°18'0 0.0
2017-Oct-14 21:30N 58°58' W 003°18'0 0.0
2017-Oct-14 21:00N 58°58' W 003°18'0 0.0
2017-Oct-14 20:30N 58°58' W 003°18'0 0.0
2017-Oct-14 20:00N 58°58' W 003°18'0 0.1
2017-Oct-14 19:30N 58°58' W 003°18'714.9
2017-Oct-14 19:00N 58°51' W 003°11'713.4
2017-Oct-14 18:30N 58°45' W 003°14'918.5
2017-Oct-14 18:00N 58°39' W 003°28'3 6.6
2017-Oct-14 17:30N 58°37' W 003°32'4 7.6
2017-Oct-14 17:00N 58°40' W 003°31'917.3
2017-Oct-14 16:30N 58°49' W 003°30'816.0
2017-Oct-14 16:00N 58°56' W 003°24'3 6.9
2017-Oct-14 15:30N 58°58' W 003°18'0 0.0
2017-Oct-14 15:00N 58°58' W 003°18'0 0.0
2017-Oct-14 14:30N 58°58' W 003°18'1 2.4
2017-Oct-14 14:00N 58°57' W 003°19'714.9
2017-Oct-14 13:30N 58°51' W 003°28'917.1
2017-Oct-14 13:00N 58°42' W 003°28'6 6.1
2017-Oct-14 11:58N 58°37' W 003°32'715.8
2017-Oct-14 11:30N 58°44' W 003°32'815.9
2017-Oct-14 11:00N 58°52' W 003°30'713.8
2017-Oct-14 10:30N 58°57' W 003°20'2 3.3
2017-Oct-14 10:00N 58°58' W 003°18'0 0.0
2017-Oct-14 09:30N 58°58' W 003°18'4 8.5
2017-Oct-14 09:01N 58°56' W 003°25'917.5
2017-Oct-14 08:30N 58°48' W 003°29'917.5
2017-Oct-14 08:00N 58°39' W 003°31'2 3.3
2017-Oct-14 07:18N 58°37' W 003°32'310.5
2017-Oct-14 07:00N 58°39' W 003°29'1116.1
2017-Oct-14 06:21N 58°45' W 003°13'412.4
2017-Oct-14 06:00N 58°49' W 003°09'816.7
2017-Oct-14 05:30N 58°57' W 003°17'1 2.1
2017-Oct-14 04:59N 58°58' W 003°18'0 0.0
2017-Oct-14 04:08N 58°58' W 003°18'0 0.0
2017-Oct-14 03:50N 58°58' W 003°18'0 0.0
2017-Oct-14 03:14N 58°58' W 003°18'0 0.0
2017-Oct-14 02:56N 58°58' W 003°18'0 0.0
2017-Oct-14 02:23N 58°58' W 003°18'0 0.0
2017-Oct-14 01:59N 58°58' W 003°18'0 0.0
2017-Oct-14 01:29N 58°58' W 003°18'0 0.0
2017-Oct-14 00:53N 58°58' W 003°18'0 0.0
2017-Oct-14 00:29N 58°58' W 003°18'0 0.0
2017-Oct-13 23:59N 58°58' W 003°18'0 0.0
2017-Oct-13 23:29N 58°58' W 003°18'0 0.0
2017-Oct-13 22:59N 58°58' W 003°18'0 0.0
2017-Oct-13 22:29N 58°58' W 003°18'0 0.0
2017-Oct-13 21:59N 58°58' W 003°18'0 0.0
2017-Oct-13 21:29N 58°58' W 003°18'0 0.0
2017-Oct-13 20:59N 58°58' W 003°18'0 0.0
2017-Oct-13 20:29N 58°58' W 003°18'0 0.0
2017-Oct-13 19:59N 58°58' W 003°18'2 4.6
2017-Oct-13 19:30N 58°57' W 003°21'816.5
2017-Oct-13 19:00N 58°49' W 003°28'917.8
2017-Oct-13 18:30N 58°40' W 003°31'4 5.5
2017-Oct-13 17:50N 58°37' W 003°32'1 2.0
2017-Oct-13 17:20N 58°38' W 003°32'617.3
2017-Oct-13 17:01N 58°43' W 003°31'816.7
2017-Oct-13 16:30N 58°52' W 003°30'612.5
2017-Oct-13 16:00N 58°57' W 003°23'3 5.5
2017-Oct-13 15:30N 58°58' W 003°18'0 0.0
2017-Oct-13 15:00N 58°58' W 003°18'0 0.0
2017-Oct-13 14:27N 58°58' W 003°18'0 0.0
2017-Oct-13 14:00N 58°58' W 003°18'0 0.0
2017-Oct-13 13:27N 58°58' W 003°18'0 0.0
2017-Oct-13 12:57N 58°58' W 003°18'0 0.0
2017-Oct-13 12:27N 58°58' W 003°18'0 0.0
2017-Oct-13 11:57N 58°58' W 003°18'0 0.0
2017-Oct-13 11:30N 58°58' W 003°18'0 0.0
2017-Oct-13 10:57N 58°58' W 003°18'0 0.0
2017-Oct-13 10:27N 58°58' W 003°18'0 0.0
2017-Oct-13 09:57N 58°58' W 003°18'0 0.0
2017-Oct-13 09:27N 58°58' W 003°18'1 1.9
2017-Oct-13 09:00N 58°57' W 003°17'815.4
2017-Oct-13 08:30N 58°52' W 003°28'918.2
2017-Oct-13 08:00N 58°43' W 003°31'610.1
2017-Oct-13 07:24N 58°37' W 003°32'0 0.2
2017-Oct-13 06:57N 58°37' W 003°32'817.1
2017-Oct-13 06:30N 58°44' W 003°30'816.9
2017-Oct-13 06:00N 58°53' W 003°28'714.2
2017-Oct-13 05:30N 58°57' W 003°18'1 1.0
2017-Oct-13 04:57N 58°58' W 003°18'0 0.0
2017-Oct-13 04:27N 58°58' W 003°18'0 0.0
2017-Oct-13 03:57N 58°58' W 003°18'0 0.0
2017-Oct-13 03:30N 58°58' W 003°18'0 0.0
2017-Oct-13 02:57N 58°58' W 003°18'0 0.0
2017-Oct-13 02:30N 58°58' W 003°18'0 0.0
2017-Oct-13 02:00N 58°58' W 003°18'0 0.0
2017-Oct-13 01:27N 58°58' W 003°18'0 0.0
2017-Oct-13 00:57N 58°58' W 003°18'0 0.0
2017-Oct-13 00:27N 58°58' W 003°18'0 0.0
2017-Oct-12 23:57N 58°58' W 003°18'0 0.0
2017-Oct-12 23:27N 58°58' W 003°18'0 0.0
2017-Oct-12 22:57N 58°58' W 003°18'0 0.0
2017-Oct-12 22:27N 58°58' W 003°18'0 0.0
2017-Oct-12 21:57N 58°58' W 003°18'0 0.0
2017-Oct-12 21:27N 58°58' W 003°18'0 0.0
2017-Oct-12 20:57N 58°58' W 003°18'0 0.0
2017-Oct-12 20:27N 58°58' W 003°18'0 0.0
2017-Oct-12 19:57N 58°58' W 003°18'0 0.0
2017-Oct-12 19:30N 58°58' W 003°18'510.5
2017-Oct-12 19:01N 58°55' W 003°26'918.4
2017-Oct-12 18:31N 58°46' W 003°30'914.1
2017-Oct-12 17:51N 58°37' W 003°32'0 0.0
2017-Oct-12 17:20N 58°37' W 003°32'411.1
2017-Oct-12 17:00N 58°40' W 003°31'817.0
2017-Oct-12 16:30N 58°49' W 003°29'816.0
2017-Oct-12 16:00N 58°56' W 003°24'4 1.2
2017-Oct-12 12:58N 58°58' W 003°18'0 0.0
2017-Oct-12 11:31N 58°58' W 003°18'0 0.0
2017-Oct-12 11:25N 58°58' W 003°18'0 0.0
2017-Oct-12 10:58N 58°58' W 003°18'0 0.0
2017-Oct-12 10:28N 58°58' W 003°18'0 0.0
2017-Oct-12 09:49N 58°58' W 003°18'0 0.0
2017-Oct-12 09:28N 58°58' W 003°18'2 4.5
2017-Oct-12 09:00N 58°57' W 003°21'815.5
2017-Oct-12 08:30N 58°50' W 003°28'917.0
2017-Oct-12 08:00N 58°41' W 003°31'4 4.0
2017-Oct-12 07:01N 58°37' W 003°32'017.8
2017-Oct-12 07:00N 58°38' W 003°32'816.1
2017-Oct-12 06:30N 58°46' W 003°33'815.8
2017-Oct-12 06:00N 58°53' W 003°28'713.9
2017-Oct-12 05:31N 58°57' W 003°17'1 1.4
2017-Oct-12 04:58N 58°58' W 003°18'0 0.0
2017-Oct-12 04:28N 58°58' W 003°18'0 0.0
2017-Oct-12 03:58N 58°58' W 003°18'0 0.0
2017-Oct-12 03:28N 58°58' W 003°18'0 0.0
2017-Oct-12 02:58N 58°58' W 003°18'0 0.0
2017-Oct-12 02:28N 58°58' W 003°18'0 0.0
2017-Oct-12 01:58N 58°58' W 003°18'0 0.0
2017-Oct-12 01:28N 58°58' W 003°18'0 0.0
2017-Oct-12 00:58N 58°58' W 003°18'0 0.0
2017-Oct-12 00:13N 58°58' W 003°18'0 0.0
2017-Oct-11 23:58N 58°58' W 003°18'0 0.0
2017-Oct-11 23:25N 58°58' W 003°18'0 0.0
2017-Oct-11 22:58N 58°58' W 003°18'0 0.0
2017-Oct-11 22:28N 58°58' W 003°18'0 0.0
2017-Oct-11 21:58N 58°58' W 003°18'0 0.0
2017-Oct-11 21:30N 58°58' W 003°18'0 0.0
2017-Oct-11 21:00N 58°58' W 003°18'0 0.0
2017-Oct-11 20:29N 58°58' W 003°18'0 0.0
2017-Oct-11 20:00N 58°58' W 003°18'0 0.0
2017-Oct-11 19:30N 58°58' W 003°18'4 8.8
2017-Oct-11 19:00N 58°56' W 003°25'917.4
2017-Oct-11 18:31N 58°47' W 003°29'917.0
2017-Oct-11 18:00N 58°39' W 003°31'2 4.2
2017-Oct-11 17:29N 58°37' W 003°32'2 3.9
2017-Oct-11 17:00N 58°38' W 003°31'21 1.1
2017-Oct-10 22:38N 58°58' W 003°18'0 0.0
2017-Oct-10 22:20N 58°58' W 003°18'0 0.0
2017-Oct-10 21:56N 58°58' W 003°18'0 0.0
2017-Oct-10 21:26N 58°58' W 003°18'0 0.0
2017-Oct-10 20:56N 58°58' W 003°18'0 0.0
2017-Oct-10 20:29N 58°58' W 003°18'0 0.0
2017-Oct-10 19:59N 58°58' W 003°18'0 0.1
2017-Oct-10 19:30N 58°58' W 003°18'611.7
2017-Oct-10 19:00N 58°54' W 003°27'918.0
2017-Oct-10 18:30N 58°45' W 003°30'916.7
2017-Oct-10 17:59N 58°37' W 003°32'0 0.3
2017-Oct-10 17:30N 58°37' W 003°32'2 4.5
2017-Oct-10 17:01N 58°39' W 003°31'817.0
2017-Oct-10 16:31N 58°47' W 003°29'815.7
2017-Oct-10 16:00N 58°55' W 003°26'510.1
2017-Oct-10 15:30N 58°58' W 003°18'0 0.0
2017-Oct-10 15:00N 58°58' W 003°18'0 0.0
2017-Oct-10 14:00N 58°58' W 003°18'0 0.0
2017-Oct-10 13:30N 58°58' W 003°18'0 0.0
2017-Oct-10 13:00N 58°58' W 003°18'0 0.0
2017-Oct-10 12:28N 58°58' W 003°18'0 0.0
2017-Oct-10 12:00N 58°58' W 003°18'0 0.0
2017-Oct-10 11:18N 58°58' W 003°18'0 0.0
2017-Oct-10 11:00N 58°58' W 003°18'0 0.0
2017-Oct-10 10:28N 58°58' W 003°18'0 0.0
2017-Oct-10 09:59N 58°58' W 003°18'0 0.0
2017-Oct-10 09:29N 58°58' W 003°18'2 4.2
2017-Oct-10 09:00N 58°57' W 003°21'816.1
2017-Oct-10 08:30N 58°50' W 003°31'916.3
2017-Oct-10 07:58N 58°42' W 003°31'3 2.6
2017-Oct-10 06:53N 58°39' W 003°32'616.9
2017-Oct-10 06:30N 58°45' W 003°30'816.1
2017-Oct-10 06:00N 58°53' W 003°27'713.2
2017-Oct-10 05:30N 58°57' W 003°18'0 0.7
2017-Oct-10 05:00N 58°58' W 003°18'0 0.0
2017-Oct-10 04:30N 58°58' W 003°18'0 0.0
2017-Oct-10 04:00N 58°58' W 003°18'0 0.0
2017-Oct-10 03:30N 58°58' W 003°18'0 0.0
2017-Oct-10 03:00N 58°58' W 003°18'0 0.0
2017-Oct-10 02:30N 58°58' W 003°18'0 0.0
2017-Oct-10 02:00N 58°58' W 003°18'0 0.0
2017-Oct-10 01:30N 58°58' W 003°18'0 0.0
2017-Oct-10 01:00N 58°58' W 003°18'0 0.0
2017-Oct-10 00:30N 58°58' W 003°18'0 0.0
2017-Oct-10 00:00N 58°58' W 003°18'0 0.0
2017-Oct-09 23:30N 58°58' W 003°18'0 0.0
2017-Oct-09 23:00N 58°58' W 003°18'0 0.0
2017-Oct-09 22:30N 58°58' W 003°18'0 0.0
2017-Oct-09 22:00N 58°58' W 003°18'0 0.0
2017-Oct-09 21:30N 58°58' W 003°18'0 0.0
2017-Oct-09 21:00N 58°58' W 003°18'0 0.0
2017-Oct-09 20:30N 58°58' W 003°18'0 0.0
2017-Oct-09 20:00N 58°58' W 003°18'0 0.0
2017-Oct-09 19:30N 58°58' W 003°18'4 7.9
2017-Oct-09 19:00N 58°56' W 003°25'917.5
2017-Oct-09 18:30N 58°48' W 003°29'917.0
2017-Oct-09 17:59N 58°39' W 003°31'2 2.0
2017-Oct-09 16:49N 58°41' W 003°31'617.7
2017-Oct-09 16:30N 58°46' W 003°29'816.6
2017-Oct-09 16:00N 58°55' W 003°26'510.9
2017-Oct-09 15:30N 58°58' W 003°18'0 0.0
2017-Oct-09 14:58N 58°58' W 003°18'0 0.0
2017-Oct-09 14:28N 58°58' W 003°18'0 0.0
2017-Oct-09 13:58N 58°58' W 003°18'0 0.0
2017-Oct-09 13:28N 58°58' W 003°18'0 0.0
2017-Oct-09 12:58N 58°58' W 003°18'0 0.0
2017-Oct-09 12:28N 58°58' W 003°18'0 0.0
2017-Oct-09 11:58N 58°58' W 003°18'0 0.0
2017-Oct-09 11:28N 58°58' W 003°18'0 0.0
2017-Oct-09 10:58N 58°58' W 003°18'0 0.0
2017-Oct-09 10:28N 58°58' W 003°18'0 0.0
2017-Oct-09 09:58N 58°58' W 003°18'0 0.0
2017-Oct-09 09:28N 58°58' W 003°18'1 2.2
2017-Oct-09 09:00N 58°57' W 003°17'815.3
2017-Oct-09 08:30N 58°52' W 003°28'917.4
2017-Oct-09 08:00N 58°43' W 003°31'612.7
2017-Oct-09 07:30N 58°37' W 003°32'0 0.0
2017-Oct-09 07:00N 58°37' W 003°32'713.9
2017-Oct-09 06:30N 58°44' W 003°30'917.0
2017-Oct-09 06:00N 58°52' W 003°28'715.0
2017-Oct-09 05:30N 58°57' W 003°17'1 1.3
2017-Oct-09 04:55N 58°58' W 003°18'0 0.0
2017-Oct-09 04:25N 58°58' W 003°18'0 0.0
2017-Oct-09 03:55N 58°58' W 003°18'0 0.0
2017-Oct-09 03:25N 58°58' W 003°18'0 0.0
2017-Oct-09 02:55N 58°58' W 003°18'0 0.0
2017-Oct-09 02:25N 58°58' W 003°18'0 0.0
2017-Oct-09 01:55N 58°58' W 003°18'0 0.0
2017-Oct-09 01:25N 58°58' W 003°18'0 0.0
2017-Oct-09 00:58N 58°58' W 003°18'0 0.0
2017-Oct-09 00:25N 58°58' W 003°18'0 0.0
2017-Oct-08 23:55N 58°58' W 003°18'0 0.0
2017-Oct-08 23:25N 58°58' W 003°18'0 0.0
2017-Oct-08 22:58N 58°58' W 003°18'0 0.0
2017-Oct-08 22:28N 58°58' W 003°18'0 0.0
2017-Oct-08 21:58N 58°58' W 003°18'0 0.0
2017-Oct-08 21:28N 58°58' W 003°18'0 0.0
2017-Oct-08 20:58N 58°58' W 003°18'0 0.0
2017-Oct-08 20:25N 58°58' W 003°18'0 0.0
2017-Oct-08 19:55N 58°58' W 003°18'0 0.0
2017-Oct-08 19:29N 58°58' W 003°18'5 9.8
2017-Oct-08 19:00N 58°55' W 003°26'917.3
2017-Oct-08 18:30N 58°47' W 003°30'917.0
2017-Oct-08 18:00N 58°38' W 003°31'1 0.8
2017-Oct-08 17:04N 58°38' W 003°32'118.7
2017-Oct-08 17:00N 58°39' W 003°32'816.9
2017-Oct-08 16:30N 58°47' W 003°31'917.6
2017-Oct-08 16:00N 58°55' W 003°25'5 8.9
2017-Oct-08 15:30N 58°58' W 003°18'0 0.0
2017-Oct-08 15:00N 58°58' W 003°18'0 0.0
2017-Oct-08 14:30N 58°58' W 003°18'0 0.0
2017-Oct-08 14:00N 58°58' W 003°18'0 0.0
2017-Oct-08 13:30N 58°58' W 003°18'0 0.0
2017-Oct-08 13:00N 58°58' W 003°18'0 0.0
2017-Oct-08 12:30N 58°58' W 003°18'  
Track history (hours):
 
Tides and Currents Weather Stations Pressure Air Temp Water Temp Dewpoint Dewpoint Depression Visibility Wind Speed Wind Dir Waves Ship Positions

Hamnavoe

Operator: NorthLink Orkey & Shetland Ferries Ltd

Last reported at 2017-Oct-18 12:30 UTC. Time now 2017-Oct-18 12:59 UTC.
Position N 58°58' W 003°18'.

Length 112 m; draft 4.2 m.

Type: Ship. MMSI: 235449000.

Date/timePositionNaut miles runAvg speedWind from/ knotsBaromVisibWave heightAir tempDewpointWater temp
2017-Oct-18 12:30N 58°58' W 003°18'0 0.0
2017-Oct-18 12:00N 58°58' W 003°18'0 0.0
2017-Oct-18 11:30N 58°58' W 003°18'0 0.0
2017-Oct-18 11:00N 58°58' W 003°18'0 0.0
2017-Oct-18 10:30N 58°58' W 003°18'0 0.0
2017-Oct-18 10:00N 58°58' W 003°18'0 0.0
2017-Oct-18 09:30N 58°58' W 003°18'1 1.4
2017-Oct-18 09:00N 58°57' W 003°17'714.6
2017-Oct-18 08:30N 58°52' W 003°28'816.9
2017-Oct-18 08:00N 58°44' W 003°29'714.5
2017-Oct-18 07:30N 58°37' W 003°32'0 0.1
2017-Oct-18 07:00N 58°37' W 003°32'714.5
2017-Oct-18 06:30N 58°44' W 003°31'918.3
2017-Oct-18 06:00N 58°53' W 003°27'713.6
2017-Oct-18 05:30N 58°57' W 003°18'1 1.0
2017-Oct-18 04:59N 58°58' W 003°18'0 0.0
2017-Oct-18 04:29N 58°58' W 003°18'0 0.0
2017-Oct-18 03:59N 58°58' W 003°18'0 0.0
2017-Oct-18 03:29N 58°58' W 003°18'0 0.0
2017-Oct-18 02:59N 58°58' W 003°18'0 0.0
2017-Oct-18 02:29N 58°58' W 003°18'0 0.0
2017-Oct-18 01:59N 58°58' W 003°18'0 0.0
2017-Oct-18 01:25N 58°58' W 003°18'0 0.0
2017-Oct-18 00:55N 58°58' W 003°18'0 0.0
2017-Oct-18 00:30N 58°58' W 003°18'0 0.0
2017-Oct-17 23:50N 58°58' W 003°18'0 0.0
2017-Oct-17 23:26N 58°58' W 003°18'0 0.0
2017-Oct-17 22:55N 58°58' W 003°18'0 0.0
2017-Oct-17 22:27N 58°58' W 003°18'0 0.0
2017-Oct-17 22:01N 58°58' W 003°18'0 0.0
2017-Oct-17 21:28N 58°58' W 003°18'0 0.0
2017-Oct-17 20:58N 58°58' W 003°18'0 0.0
2017-Oct-17 20:28N 58°58' W 003°18'0 0.0
2017-Oct-17 19:58N 58°58' W 003°18'0 0.1
2017-Oct-17 19:30N 58°58' W 003°18'714.0
2017-Oct-17 19:00N 58°52' W 003°11'713.8
2017-Oct-17 18:29N 58°45' W 003°14'919.0
2017-Oct-17 18:00N 58°40' W 003°29'4 5.2
2017-Oct-17 17:19N 58°37' W 003°32'2 7.7
2017-Oct-17 17:00N 58°39' W 003°31'917.5
2017-Oct-17 16:30N 58°48' W 003°29'917.7
2017-Oct-17 16:00N 58°56' W 003°25'4 8.0
2017-Oct-17 15:30N 58°58' W 003°18'0 0.0
2017-Oct-17 14:58N 58°58' W 003°18'0 0.0
2017-Oct-17 14:28N 58°58' W 003°18'0 0.0
2017-Oct-17 14:00N 58°58' W 003°18'0 0.0
2017-Oct-17 13:30N 58°58' W 003°18'0 0.0
2017-Oct-17 13:00N 58°58' W 003°18'0 0.0
2017-Oct-17 12:30N 58°58' W 003°18'0 0.0
2017-Oct-17 12:00N 58°58' W 003°18'0 0.0
2017-Oct-17 11:30N 58°58' W 003°18'0 0.0
2017-Oct-17 10:58N 58°58' W 003°18'0 0.0
2017-Oct-17 10:28N 58°58' W 003°18'0 0.0
2017-Oct-17 09:58N 58°58' W 003°18'0 0.0
2017-Oct-17 09:30N 58°58' W 003°18'4 8.2
2017-Oct-17 09:00N 58°56' W 003°25'713.9
2017-Oct-17 08:31N 58°50' W 003°29'714.4
2017-Oct-17 08:00N 58°42' W 003°30'611.8
2017-Oct-17 07:30N 58°37' W 003°32'0 0.1
2017-Oct-17 07:00N 58°37' W 003°32'714.6
2017-Oct-17 06:30N 58°44' W 003°30'918.8
2017-Oct-17 06:01N 58°53' W 003°27'713.4
2017-Oct-17 05:31N 58°57' W 003°18'0 0.8
2017-Oct-17 04:58N 58°58' W 003°18'0 0.0
2017-Oct-17 04:28N 58°58' W 003°18'0 0.0
2017-Oct-17 03:58N 58°58' W 003°18'0 0.0
2017-Oct-17 03:16N 58°58' W 003°18'0 0.0
2017-Oct-17 02:58N 58°58' W 003°18'0 0.0
2017-Oct-17 02:28N 58°58' W 003°18'0 0.0
2017-Oct-17 01:58N 58°58' W 003°18'0 0.0
2017-Oct-17 01:28N 58°58' W 003°18'0 0.0
2017-Oct-17 00:58N 58°58' W 003°18'0 0.0
2017-Oct-17 00:28N 58°58' W 003°18'0 0.0
2017-Oct-16 23:58N 58°58' W 003°18'0 0.0
2017-Oct-16 23:28N 58°58' W 003°18'0 0.0
2017-Oct-16 22:58N 58°58' W 003°18'0 0.0
2017-Oct-16 22:28N 58°58' W 003°18'0 0.0
2017-Oct-16 21:58N 58°58' W 003°18'0 0.0
2017-Oct-16 21:28N 58°58' W 003°18'0 0.0
2017-Oct-16 20:58N 58°58' W 003°18'0 0.0
2017-Oct-16 20:28N 58°58' W 003°18'0 0.0
2017-Oct-16 19:58N 58°58' W 003°18'0 0.0
2017-Oct-16 19:30N 58°58' W 003°18'5 9.9
2017-Oct-16 19:00N 58°55' W 003°26'816.1
2017-Oct-16 18:30N 58°47' W 003°28'917.1
2017-Oct-16 18:00N 58°39' W 003°31'2 4.6
2017-Oct-16 17:30N 58°37' W 003°32'1 1.2
2017-Oct-16 17:00N 58°37' W 003°32'917.8
2017-Oct-16 16:30N 58°46' W 003°30'918.7
2017-Oct-16 16:00N 58°55' W 003°26'510.1
2017-Oct-16 15:30N 58°58' W 003°18'0 0.0
2017-Oct-16 14:56N 58°58' W 003°18'0 0.0
2017-Oct-16 13:59N 58°58' W 003°18'0 0.0
2017-Oct-16 13:29N 58°58' W 003°18'0 0.0
2017-Oct-16 12:59N 58°58' W 003°18'0 0.0
2017-Oct-16 12:29N 58°58' W 003°18'0 0.0
2017-Oct-16 11:59N 58°58' W 003°18'0 0.0
2017-Oct-16 11:29N 58°58' W 003°18'0 0.0
2017-Oct-16 10:59N 58°58' W 003°18'0 0.0
2017-Oct-16 10:26N 58°58' W 003°18'0 0.0
2017-Oct-16 09:56N 58°58' W 003°18'0 0.0
2017-Oct-16 09:26N 58°58' W 003°18'1 2.5
2017-Oct-16 09:00N 58°57' W 003°18'714.3
2017-Oct-16 08:30N 58°52' W 003°28'917.2
2017-Oct-16 08:00N 58°43' W 003°30'7 6.7
2017-Oct-16 07:00N 58°37' W 003°32'612.4
2017-Oct-16 06:30N 58°43' W 003°30'917.8
2017-Oct-16 06:00N 58°52' W 003°28'714.6
2017-Oct-16 05:30N 58°57' W 003°18'1 1.6
2017-Oct-16 04:53N 58°58' W 003°18'0 0.0
2017-Oct-16 04:26N 58°58' W 003°18'0 0.0
2017-Oct-16 03:56N 58°58' W 003°18'0 0.0
2017-Oct-16 03:26N 58°58' W 003°18'0 0.0
2017-Oct-16 02:56N 58°58' W 003°18'0 0.0
2017-Oct-16 02:26N 58°58' W 003°18'0 0.0
2017-Oct-16 01:50N 58°58' W 003°18'0 0.0
2017-Oct-16 01:29N 58°58' W 003°18'0 0.0
2017-Oct-16 00:56N 58°58' W 003°18'0 0.0
2017-Oct-16 00:29N 58°58' W 003°18'0 0.0
2017-Oct-15 23:56N 58°58' W 003°18'0 0.0
2017-Oct-15 23:26N 58°58' W 003°18'0 0.0
2017-Oct-15 23:00N 58°58' W 003°18'0 0.0
2017-Oct-15 22:25N 58°58' W 003°18'0 0.0
2017-Oct-15 22:00N 58°58' W 003°18'0 0.0
2017-Oct-15 21:30N 58°58' W 003°18'0 0.0
2017-Oct-15 20:57N 58°58' W 003°18'0 0.0
2017-Oct-15 20:30N 58°58' W 003°18'0 0.0
2017-Oct-15 19:57N 58°58' W 003°18'2 3.4
2017-Oct-15 19:30N 58°57' W 003°16'816.3
2017-Oct-15 19:00N 58°49' W 003°09'815.7
2017-Oct-15 18:30N 58°43' W 003°19'1017.9
2017-Oct-15 17:58N 58°37' W 003°32'0 0.1
2017-Oct-15 17:18N 58°37' W 003°32'310.8
2017-Oct-15 17:00N 58°40' W 003°32'817.0
2017-Oct-15 16:30N 58°48' W 003°30'816.1
2017-Oct-15 16:00N 58°56' W 003°25'4 1.7
2017-Oct-15 13:30N 58°58' W 003°18'0 0.0
2017-Oct-15 12:45N 58°58' W 003°18'0 0.0
2017-Oct-15 12:23N 58°58' W 003°18'1 3.6
2017-Oct-15 12:01N 58°57' W 003°20'816.5
2017-Oct-15 11:30N 58°50' W 003°28'918.4
2017-Oct-15 11:00N 58°40' W 003°31'4 7.9
2017-Oct-15 10:30N 58°37' W 003°32'0 0.0
2017-Oct-15 09:55N 58°37' W 003°32'0 0.1
2017-Oct-15 09:29N 58°37' W 003°32'714.9
2017-Oct-15 09:00N 58°44' W 003°31'917.4
2017-Oct-15 08:30N 58°52' W 003°29'715.0
2017-Oct-15 08:00N 58°57' W 003°17'1 1.8
2017-Oct-15 07:30N 58°58' W 003°18'0 0.0
2017-Oct-15 07:00N 58°58' W 003°18'0 0.0
2017-Oct-15 06:30N 58°58' W 003°18'0 0.0
2017-Oct-15 06:00N 58°58' W 003°18'0 0.0
2017-Oct-15 05:30N 58°58' W 003°18'0 0.0
2017-Oct-15 05:00N 58°58' W 003°18'0 0.0
2017-Oct-15 04:30N 58°58' W 003°18'0 0.0
2017-Oct-15 04:00N 58°58' W 003°18'0 0.0
2017-Oct-15 03:30N 58°58' W 003°18'0 0.0
2017-Oct-15 03:00N 58°58' W 003°18'0 0.0
2017-Oct-15 02:30N 58°58' W 003°18'0 0.0
2017-Oct-15 02:00N 58°58' W 003°18'0 0.0
2017-Oct-15 01:30N 58°58' W 003°18'0 0.0
2017-Oct-15 01:00N 58°58' W 003°18'0 0.0
2017-Oct-15 00:30N 58°58' W 003°18'0 0.0
2017-Oct-15 00:00N 58°58' W 003°18'0 0.0
2017-Oct-14 23:30N 58°58' W 003°18'0 0.0
2017-Oct-14 23:00N 58°58' W 003°18'0 0.0
2017-Oct-14 22:30N 58°58' W 003°18'0 0.0
2017-Oct-14 22:00N 58°58' W 003°18'0 0.0
2017-Oct-14 21:30N 58°58' W 003°18'0 0.0
2017-Oct-14 21:00N 58°58' W 003°18'0 0.0
2017-Oct-14 20:30N 58°58' W 003°18'0 0.0
2017-Oct-14 20:00N 58°58' W 003°18'0 0.1
2017-Oct-14 19:30N 58°58' W 003°18'714.9
2017-Oct-14 19:00N 58°51' W 003°11'713.4
2017-Oct-14 18:30N 58°45' W 003°14'918.5
2017-Oct-14 18:00N 58°39' W 003°28'3 6.6
2017-Oct-14 17:30N 58°37' W 003°32'4 7.6
2017-Oct-14 17:00N 58°40' W 003°31'917.3
2017-Oct-14 16:30N 58°49' W 003°30'816.0
2017-Oct-14 16:00N 58°56' W 003°24'3 6.9
2017-Oct-14 15:30N 58°58' W 003°18'0 0.0
2017-Oct-14 15:00N 58°58' W 003°18'0 0.0
2017-Oct-14 14:30N 58°58' W 003°18'1 2.4
2017-Oct-14 14:00N 58°57' W 003°19'714.9
2017-Oct-14 13:30N 58°51' W 003°28'917.1
2017-Oct-14 13:00N 58°42' W 003°28'6 6.1
2017-Oct-14 11:58N 58°37' W 003°32'715.8
2017-Oct-14 11:30N 58°44' W 003°32'815.9
2017-Oct-14 11:00N 58°52' W 003°30'713.8
2017-Oct-14 10:30N 58°57' W 003°20'2 3.3
2017-Oct-14 10:00N 58°58' W 003°18'0 0.0
2017-Oct-14 09:30N 58°58' W 003°18'4 8.5
2017-Oct-14 09:01N 58°56' W 003°25'917.5
2017-Oct-14 08:30N 58°48' W 003°29'917.5
2017-Oct-14 08:00N 58°39' W 003°31'2 3.3
2017-Oct-14 07:18N 58°37' W 003°32'310.5
2017-Oct-14 07:00N 58°39' W 003°29'1116.1
2017-Oct-14 06:21N 58°45' W 003°13'412.4
2017-Oct-14 06:00N 58°49' W 003°09'816.7
2017-Oct-14 05:30N 58°57' W 003°17'1 2.1
2017-Oct-14 04:59N 58°58' W 003°18'0 0.0
2017-Oct-14 04:08N 58°58' W 003°18'0 0.0
2017-Oct-14 03:50N 58°58' W 003°18'0 0.0
2017-Oct-14 03:14N 58°58' W 003°18'0 0.0
2017-Oct-14 02:56N 58°58' W 003°18'0 0.0
2017-Oct-14 02:23N 58°58' W 003°18'0 0.0
2017-Oct-14 01:59N 58°58' W 003°18'0 0.0
2017-Oct-14 01:29N 58°58' W 003°18'0 0.0
2017-Oct-14 00:53N 58°58' W 003°18'0 0.0
2017-Oct-14 00:29N 58°58' W 003°18'0 0.0
2017-Oct-13 23:59N 58°58' W 003°18'0 0.0
2017-Oct-13 23:29N 58°58' W 003°18'0 0.0
2017-Oct-13 22:59N 58°58' W 003°18'0 0.0
2017-Oct-13 22:29N 58°58' W 003°18'0 0.0
2017-Oct-13 21:59N 58°58' W 003°18'0 0.0
2017-Oct-13 21:29N 58°58' W 003°18'0 0.0
2017-Oct-13 20:59N 58°58' W 003°18'0 0.0
2017-Oct-13 20:29N 58°58' W 003°18'0 0.0
2017-Oct-13 19:59N 58°58' W 003°18'2 4.6
2017-Oct-13 19:30N 58°57' W 003°21'816.5
2017-Oct-13 19:00N 58°49' W 003°28'917.8
2017-Oct-13 18:30N 58°40' W 003°31'4 5.5
2017-Oct-13 17:50N 58°37' W 003°32'1 2.0
2017-Oct-13 17:20N 58°38' W 003°32'617.3
2017-Oct-13 17:01N 58°43' W 003°31'816.7
2017-Oct-13 16:30N 58°52' W 003°30'612.5
2017-Oct-13 16:00N 58°57' W 003°23'3 5.5
2017-Oct-13 15:30N 58°58' W 003°18'0 0.0
2017-Oct-13 15:00N 58°58' W 003°18'0 0.0
2017-Oct-13 14:27N 58°58' W 003°18'0 0.0
2017-Oct-13 14:00N 58°58' W 003°18'0 0.0
2017-Oct-13 13:27N 58°58' W 003°18'0 0.0
2017-Oct-13 12:57N 58°58' W 003°18'0 0.0
2017-Oct-13 12:27N 58°58' W 003°18'0 0.0
2017-Oct-13 11:57N 58°58' W 003°18'0 0.0
2017-Oct-13 11:30N 58°58' W 003°18'0 0.0
2017-Oct-13 10:57N 58°58' W 003°18'0 0.0
2017-Oct-13 10:27N 58°58' W 003°18'0 0.0
2017-Oct-13 09:57N 58°58' W 003°18'0 0.0
2017-Oct-13 09:27N 58°58' W 003°18'1 1.9
2017-Oct-13 09:00N 58°57' W 003°17'815.4
2017-Oct-13 08:30N 58°52' W 003°28'918.2
2017-Oct-13 08:00N 58°43' W 003°31'610.1
2017-Oct-13 07:24N 58°37' W 003°32'0 0.2
2017-Oct-13 06:57N 58°37' W 003°32'817.1
2017-Oct-13 06:30N 58°44' W 003°30'816.9
2017-Oct-13 06:00N 58°53' W 003°28'714.2
2017-Oct-13 05:30N 58°57' W 003°18'1 1.0
2017-Oct-13 04:57N 58°58' W 003°18'0 0.0
2017-Oct-13 04:27N 58°58' W 003°18'0 0.0
2017-Oct-13 03:57N 58°58' W 003°18'0 0.0
2017-Oct-13 03:30N 58°58' W 003°18'0 0.0
2017-Oct-13 02:57N 58°58' W 003°18'0 0.0
2017-Oct-13 02:30N 58°58' W 003°18'0 0.0
2017-Oct-13 02:00N 58°58' W 003°18'0 0.0
2017-Oct-13 01:27N 58°58' W 003°18'0 0.0
2017-Oct-13 00:57N 58°58' W 003°18'0 0.0
2017-Oct-13 00:27N 58°58' W 003°18'0 0.0
2017-Oct-12 23:57N 58°58' W 003°18'0 0.0
2017-Oct-12 23:27N 58°58' W 003°18'0 0.0
2017-Oct-12 22:57N 58°58' W 003°18'0 0.0
2017-Oct-12 22:27N 58°58' W 003°18'0 0.0
2017-Oct-12 21:57N 58°58' W 003°18'0 0.0
2017-Oct-12 21:27N 58°58' W 003°18'0 0.0
2017-Oct-12 20:57N 58°58' W 003°18'0 0.0
2017-Oct-12 20:27N 58°58' W 003°18'0 0.0
2017-Oct-12 19:57N 58°58' W 003°18'0 0.0
2017-Oct-12 19:30N 58°58' W 003°18'510.5
2017-Oct-12 19:01N 58°55' W 003°26'918.4
2017-Oct-12 18:31N 58°46' W 003°30'914.1
2017-Oct-12 17:51N 58°37' W 003°32'0 0.0
2017-Oct-12 17:20N 58°37' W 003°32'411.1
2017-Oct-12 17:00N 58°40' W 003°31'817.0
2017-Oct-12 16:30N 58°49' W 003°29'816.0
2017-Oct-12 16:00N 58°56' W 003°24'4 1.2
2017-Oct-12 12:58N 58°58' W 003°18'0 0.0
2017-Oct-12 11:31N 58°58' W 003°18'0 0.0
2017-Oct-12 11:25N 58°58' W 003°18'0 0.0
2017-Oct-12 10:58N 58°58' W 003°18'0 0.0
2017-Oct-12 10:28N 58°58' W 003°18'0 0.0
2017-Oct-12 09:49N 58°58' W 003°18'0 0.0
2017-Oct-12 09:28N 58°58' W 003°18'2 4.5
2017-Oct-12 09:00N 58°57' W 003°21'815.5
2017-Oct-12 08:30N 58°50' W 003°28'917.0
2017-Oct-12 08:00N 58°41' W 003°31'4 4.0
2017-Oct-12 07:01N 58°37' W 003°32'017.8
2017-Oct-12 07:00N 58°38' W 003°32'816.1
2017-Oct-12 06:30N 58°46' W 003°33'815.8
2017-Oct-12 06:00N 58°53' W 003°28'713.9
2017-Oct-12 05:31N 58°57' W 003°17'1 1.4
2017-Oct-12 04:58N 58°58' W 003°18'0 0.0
2017-Oct-12 04:28N 58°58' W 003°18'0 0.0
2017-Oct-12 03:58N 58°58' W 003°18'0 0.0
2017-Oct-12 03:28N 58°58' W 003°18'0 0.0
2017-Oct-12 02:58N 58°58' W 003°18'0 0.0
2017-Oct-12 02:28N 58°58' W 003°18'0 0.0
2017-Oct-12 01:58N 58°58' W 003°18'0 0.0
2017-Oct-12 01:28N 58°58' W 003°18'0 0.0
2017-Oct-12 00:58N 58°58' W 003°18'0 0.0
2017-Oct-12 00:13N 58°58' W 003°18'0 0.0
2017-Oct-11 23:58N 58°58' W 003°18'0 0.0
2017-Oct-11 23:25N 58°58' W 003°18'0 0.0
2017-Oct-11 22:58N 58°58' W 003°18'0 0.0
2017-Oct-11 22:28N 58°58' W 003°18'0 0.0
2017-Oct-11 21:58N 58°58' W 003°18'0 0.0
2017-Oct-11 21:30N 58°58' W 003°18'0 0.0
2017-Oct-11 21:00N 58°58' W 003°18'0 0.0
2017-Oct-11 20:29N 58°58' W 003°18'0 0.0
2017-Oct-11 20:00N 58°58' W 003°18'0 0.0
2017-Oct-11 19:30N 58°58' W 003°18'4 8.8
2017-Oct-11 19:00N 58°56' W 003°25'917.4
2017-Oct-11 18:31N 58°47' W 003°29'917.0
2017-Oct-11 18:00N 58°39' W 003°31'2 4.2
2017-Oct-11 17:29N 58°37' W 003°32'2 3.9
2017-Oct-11 17:00N 58°38' W 003°31'21 1.1
2017-Oct-10 22:38N 58°58' W 003°18'0 0.0
2017-Oct-10 22:20N 58°58' W 003°18'0 0.0
2017-Oct-10 21:56N 58°58' W 003°18'0 0.0
2017-Oct-10 21:26N 58°58' W 003°18'0 0.0
2017-Oct-10 20:56N 58°58' W 003°18'0 0.0
2017-Oct-10 20:29N 58°58' W 003°18'0 0.0
2017-Oct-10 19:59N 58°58' W 003°18'0 0.1
2017-Oct-10 19:30N 58°58' W 003°18'611.7
2017-Oct-10 19:00N 58°54' W 003°27'918.0
2017-Oct-10 18:30N 58°45' W 003°30'916.7
2017-Oct-10 17:59N 58°37' W 003°32'0 0.3
2017-Oct-10 17:30N 58°37' W 003°32'2 4.5
2017-Oct-10 17:01N 58°39' W 003°31'817.0
2017-Oct-10 16:31N 58°47' W 003°29'815.7
2017-Oct-10 16:00N 58°55' W 003°26'510.1
2017-Oct-10 15:30N 58°58' W 003°18'0 0.0
2017-Oct-10 15:00N 58°58' W 003°18'0 0.0
2017-Oct-10 14:00N 58°58' W 003°18'0 0.0
2017-Oct-10 13:30N 58°58' W 003°18'0 0.0
2017-Oct-10 13:00N 58°58' W 003°18'0 0.0
2017-Oct-10 12:28N 58°58' W 003°18'0 0.0
2017-Oct-10 12:00N 58°58' W 003°18'0 0.0
2017-Oct-10 11:18N 58°58' W 003°18'0 0.0
2017-Oct-10 11:00N 58°58' W 003°18'0 0.0
2017-Oct-10 10:28N 58°58' W 003°18'0 0.0
2017-Oct-10 09:59N 58°58' W 003°18'0 0.0
2017-Oct-10 09:29N 58°58' W 003°18'2 4.2
2017-Oct-10 09:00N 58°57' W 003°21'816.1
2017-Oct-10 08:30N 58°50' W 003°31'916.3
2017-Oct-10 07:58N 58°42' W 003°31'3 2.6
2017-Oct-10 06:53N 58°39' W 003°32'616.9
2017-Oct-10 06:30N 58°45' W 003°30'816.1
2017-Oct-10 06:00N 58°53' W 003°27'713.2
2017-Oct-10 05:30N 58°57' W 003°18'0 0.7
2017-Oct-10 05:00N 58°58' W 003°18'0 0.0
2017-Oct-10 04:30N 58°58' W 003°18'0 0.0
2017-Oct-10 04:00N 58°58' W 003°18'0 0.0
2017-Oct-10 03:30N 58°58' W 003°18'0 0.0
2017-Oct-10 03:00N 58°58' W 003°18'0 0.0
2017-Oct-10 02:30N 58°58' W 003°18'0 0.0
2017-Oct-10 02:00N 58°58' W 003°18'0 0.0
2017-Oct-10 01:30N 58°58' W 003°18'0 0.0
2017-Oct-10 01:00N 58°58' W 003°18'0 0.0
2017-Oct-10 00:30N 58°58' W 003°18'0 0.0
2017-Oct-10 00:00N 58°58' W 003°18'0 0.0
2017-Oct-09 23:30N 58°58' W 003°18'0 0.0
2017-Oct-09 23:00N 58°58' W 003°18'0 0.0
2017-Oct-09 22:30N 58°58' W 003°18'0 0.0
2017-Oct-09 22:00N 58°58' W 003°18'0 0.0
2017-Oct-09 21:30N 58°58' W 003°18'0 0.0
2017-Oct-09 21:00N 58°58' W 003°18'0 0.0
2017-Oct-09 20:30N 58°58' W 003°18'0 0.0
2017-Oct-09 20:00N 58°58' W 003°18'0 0.0
2017-Oct-09 19:30N 58°58' W 003°18'4 7.9
2017-Oct-09 19:00N 58°56' W 003°25'917.5
2017-Oct-09 18:30N 58°48' W 003°29'917.0
2017-Oct-09 17:59N 58°39' W 003°31'2 2.0
2017-Oct-09 16:49N 58°41' W 003°31'617.7
2017-Oct-09 16:30N 58°46' W 003°29'816.6
2017-Oct-09 16:00N 58°55' W 003°26'510.9
2017-Oct-09 15:30N 58°58' W 003°18'0 0.0
2017-Oct-09 14:58N 58°58' W 003°18'0 0.0
2017-Oct-09 14:28N 58°58' W 003°18'0 0.0
2017-Oct-09 13:58N 58°58' W 003°18'0 0.0
2017-Oct-09 13:28N 58°58' W 003°18'0 0.0
2017-Oct-09 12:58N 58°58' W 003°18'0 0.0
2017-Oct-09 12:28N 58°58' W 003°18'0 0.0
2017-Oct-09 11:58N 58°58' W 003°18'0 0.0
2017-Oct-09 11:28N 58°58' W 003°18'0 0.0
2017-Oct-09 10:58N 58°58' W 003°18'0 0.0
2017-Oct-09 10:28N 58°58' W 003°18'0 0.0
2017-Oct-09 09:58N 58°58' W 003°18'0 0.0
2017-Oct-09 09:28N 58°58' W 003°18'1 2.2
2017-Oct-09 09:00N 58°57' W 003°17'815.3
2017-Oct-09 08:30N 58°52' W 003°28'917.4
2017-Oct-09 08:00N 58°43' W 003°31'612.7
2017-Oct-09 07:30N 58°37' W 003°32'0 0.0
2017-Oct-09 07:00N 58°37' W 003°32'713.9
2017-Oct-09 06:30N 58°44' W 003°30'917.0
2017-Oct-09 06:00N 58°52' W 003°28'715.0
2017-Oct-09 05:30N 58°57' W 003°17'1 1.3
2017-Oct-09 04:55N 58°58' W 003°18'0 0.0
2017-Oct-09 04:25N 58°58' W 003°18'0 0.0
2017-Oct-09 03:55N 58°58' W 003°18'0 0.0
2017-Oct-09 03:25N 58°58' W 003°18'0 0.0
2017-Oct-09 02:55N 58°58' W 003°18'0 0.0
2017-Oct-09 02:25N 58°58' W 003°18'0 0.0
2017-Oct-09 01:55N 58°58' W 003°18'0 0.0
2017-Oct-09 01:25N 58°58' W 003°18'0 0.0
2017-Oct-09 00:58N 58°58' W 003°18'0 0.0
2017-Oct-09 00:25N 58°58' W 003°18'0 0.0
2017-Oct-08 23:55N 58°58' W 003°18'0 0.0
2017-Oct-08 23:25N 58°58' W 003°18'0 0.0
2017-Oct-08 22:58N 58°58' W 003°18'0 0.0
2017-Oct-08 22:28N 58°58' W 003°18'0 0.0
2017-Oct-08 21:58N 58°58' W 003°18'0 0.0
2017-Oct-08 21:28N 58°58' W 003°18'0 0.0
2017-Oct-08 20:58N 58°58' W 003°18'0 0.0
2017-Oct-08 20:25N 58°58' W 003°18'0 0.0
2017-Oct-08 19:55N 58°58' W 003°18'0 0.0
2017-Oct-08 19:29N 58°58' W 003°18'5 9.8
2017-Oct-08 19:00N 58°55' W 003°26'917.3
2017-Oct-08 18:30N 58°47' W 003°30'917.0
2017-Oct-08 18:00N 58°38' W 003°31'1 0.8
2017-Oct-08 17:04N 58°38' W 003°32'118.7
2017-Oct-08 17:00N 58°39' W 003°32'816.9
2017-Oct-08 16:30N 58°47' W 003°31'917.6
2017-Oct-08 16:00N 58°55' W 003°25'5 8.9
2017-Oct-08 15:30N 58°58' W 003°18'0 0.0
2017-Oct-08 15:00N 58°58' W 003°18'0 0.0
2017-Oct-08 14:30N 58°58' W 003°18'0 0.0
2017-Oct-08 14:00N 58°58' W 003°18'0 0.0
2017-Oct-08 13:30N 58°58' W 003°18'0 0.0
2017-Oct-08 13:00N 58°58' W 003°18'0 0.0
2017-Oct-08 12:30N 58°58' W 003°18'  

Dump ship's entire track history